Time;durP1;ratioP1;P1;durP2;ratioP2;P2;SDS_P1;SDS_P2;PMS_P1;PMS_P2;Temp;Humidity;BMP_temperature;BMP_pressure;BME280_temperature;BME280_humidity;BME280_pressure;Samples;Min_cycle;Max_cycle;Signal;HPM_P1;HPM_P2
2021/08/20 00:00:16;;;;;;;2.17;2.07;;;;;;;;;;5114226;28;20027;-60
2021/08/20 00:02:41;;;;;;;2.25;2.10;;;;;;;;;;5114581;28;20318;-60
2021/08/20 00:05:06;;;;;;;2.03;1.83;;;;;;;;;;5115042;28;20114;-61
2021/08/20 00:07:32;;;;;;;1.90;1.80;;;;;;;;;;5115641;28;20016;-60
2021/08/20 00:09:57;;;;;;;2.03;1.85;;;;;;;;;;5114420;28;20330;-60
2021/08/20 00:12:22;;;;;;;2.45;1.95;;;;;;;;;;5114848;28;20023;-60
2021/08/20 00:14:48;;;;;;;2.90;2.25;;;;;;;;;;5114563;28;20066;-60
2021/08/20 00:17:13;;;;;;;1.80;1.67;;;;;;;;;;5114836;28;20024;-61
2021/08/20 00:19:38;;;;;;;1.73;1.50;;;;;;;;;;5114712;28;20462;-60
2021/08/20 00:22:04;;;;;;;2.50;2.30;;;;;;;;;;5114722;28;20447;-60
2021/08/20 00:24:30;;;;;;;2.58;2.28;;;;;;;;;;5114774;28;20102;-60
2021/08/20 00:26:55;;;;;;;2.50;2.30;;;;;;;;;;5114536;28;20161;-60
2021/08/20 00:29:20;;;;;;;2.37;2.17;;;;;;;;;;5114668;28;20027;-60
2021/08/20 00:31:45;;;;;;;2.97;2.28;;;;;;;;;;5114949;28;20623;-60
2021/08/20 00:34:10;;;;;;;1.95;1.85;;;;;;;;;;5114711;28;20035;-60
2021/08/20 00:36:36;;;;;;;2.72;2.10;;;;;;;;;;5114395;28;20027;-60
2021/08/20 00:39:01;;;;;;;2.33;2.13;;;;;;;;;;5114436;28;20096;-60
2021/08/20 00:41:26;;;;;;;2.28;2.15;;;;;;;;;;5114123;28;20069;-61
2021/08/20 00:43:51;;;;;;;2.22;2.00;;;;;;;;;;5114661;28;20466;-60
2021/08/20 00:46:16;;;;;;;4.37;2.27;;;;;;;;;;5114455;28;20464;-60
2021/08/20 00:48:42;;;;;;;2.70;1.73;;;;;;;;;;5114030;28;20276;-60
2021/08/20 00:51:20;;;;;;;1.73;1.63;;;;;;;;;;5113882;28;20098;-60
2021/08/20 00:53:46;;;;;;;2.03;1.92;;;;;;;;;;5114522;28;20019;-59
2021/08/20 00:56:11;;;;;;;2.05;1.90;;;;;;;;;;5114759;28;20077;-59
2021/08/20 00:58:37;;;;;;;1.95;1.80;;;;;;;;;;5113799;28;20538;-60
2021/08/20 01:01:03;;;;;;;1.60;1.50;;;;;;;;;;5113549;28;20088;-60
2021/08/20 01:03:28;;;;;;;2.38;2.20;;;;;;;;;;5113417;28;20401;-60
2021/08/20 01:05:54;;;;;;;2.30;2.10;;;;;;;;;;5113516;28;20015;-60
2021/08/20 01:08:26;;;;;;;2.25;2.05;;;;;;;;;;5113883;28;20011;-60
2021/08/20 01:10:52;;;;;;;2.50;1.65;;;;;;;;;;5112939;28;20412;-60
2021/08/20 01:13:18;;;;;;;2.25;1.83;;;;;;;;;;5113676;28;20041;-59
2021/08/20 01:15:43;;;;;;;4.28;2.83;;;;;;;;;;5118893;27;20405;-60
2021/08/20 01:18:08;;;;;;;3.00;2.15;;;;;;;;;;5113476;28;20011;-58
2021/08/20 01:20:33;;;;;;;2.28;2.15;;;;;;;;;;5113497;28;20024;-58
2021/08/20 01:22:59;;;;;;;1.90;1.77;;;;;;;;;;5114192;28;20027;-58
2021/08/20 01:25:24;;;;;;;2.17;1.58;;;;;;;;;;5113549;28;20031;-60
2021/08/20 01:28:03;;;;;;;2.40;2.08;;;;;;;;;;5099179;28;20044;-60
2021/08/20 01:30:28;;;;;;;2.25;2.05;;;;;;;;;;5093007;28;20020;-60
2021/08/20 01:32:53;;;;;;;2.30;2.10;;;;;;;;;;5092579;28;20093;-60
2021/08/20 01:35:18;;;;;;;1.97;1.83;;;;;;;;;;5080966;28;20029;-60
2021/08/20 01:37:44;;;;;;;2.40;2.30;;;;;;;;;;5077656;28;20258;-60
2021/08/20 01:40:09;;;;;;;2.08;1.98;;;;;;;;;;5092890;28;20022;-60
2021/08/20 01:42:34;;;;;;;2.85;2.58;;;;;;;;;;5091395;28;20020;-60
2021/08/20 01:45:00;;;;;;;2.47;2.28;;;;;;;;;;5091243;28;20062;-60
2021/08/20 01:47:25;;;;;;;3.00;2.30;;;;;;;;;;5079377;28;20024;-60
2021/08/20 01:49:50;;;;;;;2.90;2.42;;;;;;;;;;5072604;28;20338;-60
2021/08/20 01:52:15;;;;;;;4.00;3.30;;;;;;;;;;5072350;28;20047;-60
2021/08/20 01:54:40;;;;;;;2.85;2.35;;;;;;;;;;5072441;28;20044;-60
2021/08/20 01:57:06;;;;;;;3.25;2.50;;;;;;;;;;5072760;28;20023;-60
2021/08/20 01:59:31;;;;;;;2.95;2.40;;;;;;;;;;5087993;28;20040;-60
2021/08/20 02:01:57;;;;;;;4.10;2.50;;;;;;;;;;5083144;28;20024;-60
2021/08/20 02:04:22;;;;;;;3.03;2.73;;;;;;;;;;5078478;28;20029;-60
2021/08/20 02:06:47;;;;;;;3.38;2.38;;;;;;;;;;5075135;28;20353;-60
2021/08/20 02:09:12;;;;;;;3.50;2.47;;;;;;;;;;5072340;28;20017;-60
2021/08/20 02:11:40;;;;;;;2.60;2.40;;;;;;;;;;5071959;28;20051;-60
2021/08/20 02:14:05;;;;;;;2.55;2.35;;;;;;;;;;5072460;28;20053;-60
2021/08/20 02:16:30;;;;;;;2.63;2.38;;;;;;;;;;5085107;28;20028;-60
2021/08/20 02:18:55;;;;;;;3.42;2.13;;;;;;;;;;5091789;28;20406;-60
2021/08/20 02:21:21;;;;;;;2.63;2.42;;;;;;;;;;5075287;28;20029;-60
2021/08/20 02:23:46;;;;;;;2.42;2.22;;;;;;;;;;5072200;28;20075;-60
2021/08/20 02:26:11;;;;;;;3.53;2.33;;;;;;;;;;5082049;28;20053;-60
2021/08/20 02:28:36;;;;;;;2.25;2.05;;;;;;;;;;5111463;28;20093;-59
2021/08/20 02:31:01;;;;;;;2.20;2.00;;;;;;;;;;5108703;28;20020;-59
2021/08/20 02:33:27;;;;;;;2.60;1.98;;;;;;;;;;5093706;28;20012;-60
2021/08/20 02:35:52;;;;;;;2.70;2.13;;;;;;;;;;5091826;28;20024;-60
2021/08/20 02:38:17;;;;;;;3.95;2.47;;;;;;;;;;5074208;28;20103;-60
2021/08/20 02:40:42;;;;;;;2.73;2.50;;;;;;;;;;5112288;28;20043;-60
2021/08/20 02:43:07;;;;;;;2.50;2.30;;;;;;;;;;5111919;28;20261;-59
2021/08/20 02:45:33;;;;;;;2.40;2.20;;;;;;;;;;5095864;28;20286;-60
2021/08/20 02:47:58;;;;;;;2.33;2.13;;;;;;;;;;5111761;28;20027;-60
2021/08/20 02:50:23;;;;;;;2.80;2.30;;;;;;;;;;5094038;28;20359;-60
2021/08/20 02:52:48;;;;;;;4.00;2.50;;;;;;;;;;5091945;28;20032;-60
2021/08/20 02:55:14;;;;;;;2.65;2.40;;;;;;;;;;5110661;28;20269;-60
2021/08/20 02:57:39;;;;;;;2.35;2.17;;;;;;;;;;5091854;28;20024;-59
2021/08/20 03:00:05;;;;;;;4.05;2.10;;;;;;;;;;5092107;28;20020;-59
2021/08/20 03:02:30;;;;;;;2.53;2.33;;;;;;;;;;5089314;28;20027;-59
2021/08/20 03:04:55;;;;;;;3.30;2.28;;;;;;;;;;5107737;28;20020;-60
2021/08/20 03:07:20;;;;;;;3.10;2.90;;;;;;;;;;5091989;28;20024;-60
2021/08/20 03:09:46;;;;;;;3.43;2.60;;;;;;;;;;5095491;28;20016;-60
2021/08/20 03:12:11;;;;;;;3.28;2.60;;;;;;;;;;5091700;28;20740;-58
2021/08/20 03:14:36;;;;;;;3.35;3.00;;;;;;;;;;5094978;28;20036;-60
2021/08/20 03:17:01;;;;;;;2.70;2.50;;;;;;;;;;5105609;28;20032;-60
2021/08/20 03:19:27;;;;;;;2.70;2.47;;;;;;;;;;5091615;28;20066;-60
2021/08/20 03:21:52;;;;;;;5.18;2.92;;;;;;;;;;5091654;28;20107;-60
2021/08/20 03:24:17;;;;;;;3.40;3.10;;;;;;;;;;5091777;28;20107;-60
2021/08/20 03:26:42;;;;;;;3.22;2.92;;;;;;;;;;5096510;28;20761;-60
2021/08/20 03:29:08;;;;;;;2.57;2.37;;;;;;;;;;5092761;28;20020;-60
2021/08/20 03:31:33;;;;;;;3.28;3.08;;;;;;;;;;5092834;28;20267;-59
2021/08/20 03:33:58;;;;;;;3.95;2.67;;;;;;;;;;5098617;28;20015;-60
2021/08/20 03:36:24;;;;;;;3.47;3.17;;;;;;;;;;5099713;28;20055;-60
2021/08/20 03:38:50;;;;;;;3.10;2.90;;;;;;;;;;5108352;28;20027;-60
2021/08/20 03:41:19;;;;;;;3.25;2.92;;;;;;;;;;5107347;28;20028;-59
2021/08/20 03:43:44;;;;;;;2.92;2.72;;;;;;;;;;5102459;28;20092;-59
2021/08/20 03:46:09;;;;;;;3.15;2.67;;;;;;;;;;5107762;28;20024;-59
2021/08/20 03:48:35;;;;;;;3.10;2.90;;;;;;;;;;5091427;28;20024;-59
2021/08/20 03:51:00;;;;;;;4.15;2.72;;;;;;;;;;5092170;28;20032;-59
2021/08/20 03:53:26;;;;;;;3.17;2.92;;;;;;;;;;5111822;28;20027;-60
2021/08/20 03:55:51;;;;;;;3.88;3.58;;;;;;;;;;5113083;28;20420;-59
2021/08/20 03:58:16;;;;;;;3.83;2.85;;;;;;;;;;5097931;28;20020;-59
2021/08/20 04:00:45;;;;;;;3.67;3.40;;;;;;;;;;5095252;28;20012;-59
2021/08/20 04:03:10;;;;;;;3.65;3.35;;;;;;;;;;5105290;28;20107;-60
2021/08/20 04:05:35;;;;;;;3.85;3.00;;;;;;;;;;5094321;28;20354;-60
2021/08/20 04:08:00;;;;;;;3.10;2.90;;;;;;;;;;5094450;28;20030;-61
2021/08/20 04:10:26;;;;;;;3.27;2.97;;;;;;;;;;5107718;28;20717;-59
2021/08/20 04:12:51;;;;;;;3.50;2.75;;;;;;;;;;5104716;28;20270;-60
2021/08/20 04:15:16;;;;;;;3.58;3.20;;;;;;;;;;5095140;28;20355;-59
2021/08/20 04:17:41;;;;;;;4.35;3.13;;;;;;;;;;5109521;28;20469;-59
2021/08/20 04:20:07;;;;;;;3.80;3.40;;;;;;;;;;5076292;28;20023;-59
2021/08/20 04:22:32;;;;;;;3.47;3.03;;;;;;;;;;5108507;28;20032;-60
2021/08/20 04:24:58;;;;;;;3.55;3.28;;;;;;;;;;5114807;28;20028;-59
2021/08/20 04:27:23;;;;;;;3.17;2.88;;;;;;;;;;5113774;28;20039;-59
2021/08/20 04:29:48;;;;;;;5.07;3.60;;;;;;;;;;5096033;28;20458;-59
2021/08/20 04:32:13;;;;;;;4.57;3.90;;;;;;;;;;5094819;28;20046;-59
2021/08/20 04:34:38;;;;;;;3.90;3.60;;;;;;;;;;5098776;28;20051;-59
2021/08/20 04:37:04;;;;;;;3.95;3.65;;;;;;;;;;5094196;28;20030;-59
2021/08/20 04:39:29;;;;;;;4.28;3.65;;;;;;;;;;5095949;28;20377;-59
2021/08/20 04:41:54;;;;;;;4.95;3.63;;;;;;;;;;5094238;28;20020;-59
2021/08/20 04:44:19;;;;;;;4.05;3.75;;;;;;;;;;5103126;28;20052;-59
2021/08/20 04:46:44;;;;;;;4.65;3.38;;;;;;;;;;5103293;28;20020;-60
2021/08/20 04:49:10;;;;;;;4.50;3.90;;;;;;;;;;5092596;28;20096;-60
2021/08/20 04:51:35;;;;;;;4.13;3.83;;;;;;;;;;5093832;28;20024;-60
2021/08/20 04:54:01;;;;;;;4.82;4.43;;;;;;;;;;5109336;28;20027;-60
2021/08/20 04:56:26;;;;;;;4.60;4.20;;;;;;;;;;5106219;28;20486;-60
2021/08/20 04:58:52;;;;;;;5.40;4.70;;;;;;;;;;5096105;28;20047;-60
2021/08/20 05:01:18;;;;;;;5.78;5.28;;;;;;;;;;5104289;28;20154;-60
2021/08/20 05:03:43;;;;;;;5.43;4.93;;;;;;;;;;5101745;28;20481;-60
2021/08/20 05:06:08;;;;;;;6.05;5.55;;;;;;;;;;5103560;28;20103;-60
2021/08/20 05:08:35;;;;;;;5.68;5.07;;;;;;;;;;5102514;28;20012;-60
2021/08/20 05:11:00;;;;;;;5.45;4.95;;;;;;;;;;5102224;28;20042;-60
2021/08/20 05:13:25;;;;;;;5.88;5.38;;;;;;;;;;5091725;28;20095;-60
2021/08/20 05:15:51;;;;;;;5.93;5.28;;;;;;;;;;5089209;28;21537;-60
2021/08/20 05:18:22;;;;;;;6.20;5.60;;;;;;;;;;5088303;28;20024;-59
2021/08/20 05:20:48;;;;;;;6.03;5.53;;;;;;;;;;5086644;28;20034;-60
2021/08/20 05:23:13;;;;;;;6.90;6.05;;;;;;;;;;5092475;28;20028;-60
2021/08/20 05:25:39;;;;;;;6.10;5.45;;;;;;;;;;5092977;28;20056;-60
2021/08/20 05:28:04;;;;;;;7.18;5.95;;;;;;;;;;5091140;28;20394;-61
2021/08/20 05:30:29;;;;;;;6.82;6.07;;;;;;;;;;5092293;28;20462;-60
2021/08/20 05:32:55;;;;;;;6.43;5.65;;;;;;;;;;5091258;28;20020;-60
2021/08/20 05:35:20;;;;;;;7.05;6.35;;;;;;;;;;5086316;28;20028;-60
2021/08/20 05:37:45;;;;;;;7.10;6.43;;;;;;;;;;5067648;28;20474;-60
2021/08/20 05:40:11;;;;;;;7.45;6.75;;;;;;;;;;5078764;28;20022;-61
2021/08/20 05:42:37;;;;;;;6.90;6.30;;;;;;;;;;5088389;28;20059;-61
2021/08/20 05:45:03;;;;;;;7.18;6.47;;;;;;;;;;5092696;28;20071;-61
2021/08/20 05:47:28;;;;;;;6.88;6.25;;;;;;;;;;5089913;28;20046;-60
2021/08/20 05:49:53;;;;;;;7.38;6.45;;;;;;;;;;5063269;28;20463;-60
2021/08/20 05:52:18;;;;;;;8.03;7.33;;;;;;;;;;5092283;28;20074;-60
2021/08/20 05:54:43;;;;;;;7.93;7.15;;;;;;;;;;5091005;28;20274;-59
2021/08/20 05:57:09;;;;;;;7.88;7.03;;;;;;;;;;5089226;28;20023;-60
2021/08/20 05:59:34;;;;;;;7.23;6.50;;;;;;;;;;5089888;28;20024;-60
2021/08/20 06:01:59;;;;;;;7.60;6.90;;;;;;;;;;5085394;28;20274;-60
2021/08/20 06:04:24;;;;;;;7.72;7.03;;;;;;;;;;5091209;28;20470;-60
2021/08/20 06:06:49;;;;;;;7.90;7.07;;;;;;;;;;5090413;28;20390;-60
2021/08/20 06:09:15;;;;;;;7.65;6.95;;;;;;;;;;5083655;28;20023;-60
2021/08/20 06:11:40;;;;;;;7.68;6.97;;;;;;;;;;5090858;28;20016;-58
2021/08/20 06:14:05;;;;;;;7.75;6.55;;;;;;;;;;5091063;28;20024;-60
2021/08/20 06:16:31;;;;;;;8.05;6.70;;;;;;;;;;5091152;28;20031;-59
2021/08/20 06:18:56;;;;;;;8.38;6.72;;;;;;;;;;5082931;28;20028;-59
2021/08/20 06:21:21;;;;;;;7.30;6.60;;;;;;;;;;5090149;28;20446;-59
2021/08/20 06:23:46;;;;;;;6.82;6.13;;;;;;;;;;5075046;28;20523;-59
2021/08/20 06:26:11;;;;;;;8.05;7.25;;;;;;;;;;5085948;28;20019;-60
2021/08/20 06:28:37;;;;;;;7.35;6.75;;;;;;;;;;5089976;28;20522;-59
2021/08/20 06:31:03;;;;;;;7.63;6.97;;;;;;;;;;5085973;28;20374;-58
2021/08/20 06:33:29;;;;;;;7.18;6.47;;;;;;;;;;5082840;28;20128;-59
2021/08/20 06:35:55;;;;;;;7.80;7.10;;;;;;;;;;5087699;28;20038;-59
2021/08/20 06:38:20;;;;;;;6.63;6.03;;;;;;;;;;5088531;28;20107;-59
2021/08/20 06:40:45;;;;;;;6.80;6.20;;;;;;;;;;5087572;28;20500;-59
2021/08/20 06:43:10;;;;;;;5.97;5.47;;;;;;;;;;5084165;28;20294;-59
2021/08/20 06:45:35;;;;;;;6.53;5.93;;;;;;;;;;5087733;28;20344;-59
2021/08/20 06:48:01;;;;;;;6.28;5.47;;;;;;;;;;5095132;28;20032;-60
2021/08/20 06:50:26;;;;;;;5.65;5.25;;;;;;;;;;5086855;28;20050;-58
2021/08/20 06:52:51;;;;;;;5.50;5.10;;;;;;;;;;5089947;28;20099;-59
2021/08/20 06:55:16;;;;;;;5.60;5.07;;;;;;;;;;5103653;28;20488;-59
2021/08/20 06:57:42;;;;;;;4.85;4.28;;;;;;;;;;5092031;28;20055;-59
2021/08/20 07:00:07;;;;;;;4.80;4.30;;;;;;;;;;5096312;28;20416;-59
2021/08/20 07:02:39;;;;;;;4.18;3.72;;;;;;;;;;5092123;28;20031;-59
2021/08/20 07:05:05;;;;;;;4.50;3.20;;;;;;;;;;5091410;28;20045;-60
2021/08/20 07:07:31;;;;;;;4.55;3.67;;;;;;;;;;5091398;28;20016;-59
2021/08/20 07:09:56;;;;;;;4.13;3.58;;;;;;;;;;5107231;28;20008;-59
2021/08/20 07:12:21;;;;;;;4.17;3.70;;;;;;;;;;5091383;28;20012;-59
2021/08/20 07:14:46;;;;;;;3.30;2.90;;;;;;;;;;5085197;28;20274;-59
2021/08/20 07:17:11;;;;;;;3.70;3.25;;;;;;;;;;5071965;28;20255;-60
2021/08/20 07:19:36;;;;;;;3.80;3.50;;;;;;;;;;5073156;28;20328;-61
2021/08/20 07:22:02;;;;;;;4.40;3.55;;;;;;;;;;5091438;28;20344;-59
2021/08/20 07:24:27;;;;;;;4.05;3.75;;;;;;;;;;5099652;28;20028;-58
2021/08/20 07:26:52;;;;;;;3.87;3.50;;;;;;;;;;5112014;28;20036;-59
2021/08/20 07:29:17;;;;;;;4.18;3.88;;;;;;;;;;5111907;28;20241;-59
2021/08/20 07:31:43;;;;;;;4.05;3.75;;;;;;;;;;5113592;28;20073;-59
2021/08/20 07:34:08;;;;;;;4.07;3.63;;;;;;;;;;5115886;28;20016;-59
2021/08/20 07:36:33;;;;;;;3.35;3.10;;;;;;;;;;5101900;28;20435;-59
2021/08/20 07:38:58;;;;;;;3.33;3.03;;;;;;;;;;5095023;28;20419;-58
2021/08/20 07:41:24;;;;;;;2.95;2.75;;;;;;;;;;5094765;28;20016;-59
2021/08/20 07:43:49;;;;;;;2.92;2.63;;;;;;;;;;5094683;28;20028;-58
2021/08/20 07:46:14;;;;;;;3.40;3.10;;;;;;;;;;5095287;28;20012;-59
2021/08/20 07:48:39;;;;;;;2.80;2.60;;;;;;;;;;5094989;28;20027;-59
2021/08/20 07:51:04;;;;;;;2.80;2.60;;;;;;;;;;5094848;28;20016;-59
2021/08/20 07:53:30;;;;;;;2.53;2.33;;;;;;;;;;5095305;28;20023;-59
2021/08/20 07:55:56;;;;;;;3.95;2.05;;;;;;;;;;5095051;28;20023;-59
2021/08/20 07:58:21;;;;;;;2.28;2.17;;;;;;;;;;5095322;28;20058;-58
2021/08/20 08:00:46;;;;;;;2.50;2.13;;;;;;;;;;5095006;28;20099;-59
2021/08/20 08:03:11;;;;;;;3.50;2.20;;;;;;;;;;5107051;28;20214;-59
2021/08/20 08:05:37;;;;;;;2.50;1.73;;;;;;;;;;5105289;28;20759;-59
2021/08/20 08:08:02;;;;;;;2.88;1.77;;;;;;;;;;5095461;28;20254;-59
2021/08/20 08:10:27;;;;;;;2.67;1.90;;;;;;;;;;5094611;28;20020;-59
2021/08/20 08:12:54;;;;;;;2.08;1.63;;;;;;;;;;5094792;28;20042;-59
2021/08/20 08:15:19;;;;;;;2.20;1.73;;;;;;;;;;5094515;28;20093;-60
2021/08/20 08:17:44;;;;;;;1.88;1.70;;;;;;;;;;5102286;28;20412;-60
2021/08/20 08:20:11;;;;;;;1.67;1.58;;;;;;;;;;5094315;28;20027;-59
2021/08/20 08:22:36;;;;;;;2.30;1.48;;;;;;;;;;5094457;28;20445;-60
2021/08/20 08:25:02;;;;;;;1.73;1.63;;;;;;;;;;5094679;28;20099;-60
2021/08/20 08:27:28;;;;;;;2.15;1.27;;;;;;;;;;5109015;28;20044;-60
2021/08/20 08:29:53;;;;;;;2.73;1.40;;;;;;;;;;5115071;28;20081;-60
2021/08/20 08:32:18;;;;;;;2.23;1.40;;;;;;;;;;5114935;28;20612;-60
2021/08/20 08:34:43;;;;;;;3.97;1.67;;;;;;;;;;5097239;28;20277;-58
2021/08/20 08:37:08;;;;;;;2.67;1.60;;;;;;;;;;5104158;28;20262;-60
2021/08/20 08:39:34;;;;;;;2.03;1.35;;;;;;;;;;5094882;28;20301;-60
2021/08/20 08:41:59;;;;;;;1.77;1.63;;;;;;;;;;5094173;28;20019;-58
2021/08/20 08:44:24;;;;;;;2.13;1.83;;;;;;;;;;5094524;28;20035;-59
2021/08/20 08:46:49;;;;;;;1.63;1.53;;;;;;;;;;5094207;28;20020;-59
2021/08/20 08:49:18;;;;;;;1.65;1.20;;;;;;;;;;5094195;28;20307;-59
2021/08/20 08:51:43;;;;;;;2.10;0.95;;;;;;;;;;5093934;28;20023;-59
2021/08/20 08:54:11;;;;;;;1.17;1.00;;;;;;;;;;5094033;28;20028;-59
2021/08/20 08:56:36;;;;;;;1.50;1.40;;;;;;;;;;5094004;28;20262;-59
2021/08/20 08:59:01;;;;;;;2.03;1.40;;;;;;;;;;5100492;28;20072;-58
2021/08/20 09:01:31;;;;;;;2.00;1.60;;;;;;;;;;5114188;28;20470;-59
2021/08/20 09:04:13;;;;;;;2.85;1.40;;;;;;;;;;5114190;28;20377;-59
2021/08/20 09:06:39;;;;;;;2.13;1.20;;;;;;;;;;5109866;28;20378;-60
2021/08/20 09:09:09;;;;;;;1.42;1.30;;;;;;;;;;5093879;28;20069;-59
2021/08/20 09:11:34;;;;;;;1.48;1.02;;;;;;;;;;5093503;28;20023;-59
2021/08/20 09:13:59;;;;;;;2.70;1.30;;;;;;;;;;5093646;28;20374;-58
2021/08/20 09:16:33;;;;;;;1.50;1.40;;;;;;;;;;5093310;28;20085;-59
2021/08/20 09:19:07;;;;;;;1.50;1.40;;;;;;;;;;5093695;28;20251;-59
2021/08/20 09:21:32;;;;;;;2.78;1.23;;;;;;;;;;5093140;28;20020;-59
2021/08/20 09:23:58;;;;;;;2.03;1.20;;;;;;;;;;5092920;28;20462;-58
2021/08/20 09:26:23;;;;;;;2.40;1.35;;;;;;;;;;5093430;28;20246;-58
2021/08/20 09:28:48;;;;;;;1.35;1.25;;;;;;;;;;5113721;28;20027;-59
2021/08/20 09:31:13;;;;;;;2.03;1.30;;;;;;;;;;5113719;28;20042;-58
2021/08/20 09:33:41;;;;;;;2.05;1.20;;;;;;;;;;5113831;28;20616;-59
2021/08/20 09:36:08;;;;;;;2.42;1.20;;;;;;;;;;5085065;28;20035;-58
2021/08/20 09:38:37;;;;;;;3.78;1.30;;;;;;;;;;5093029;28;20030;-60
2021/08/20 09:41:06;;;;;;;1.10;0.93;;;;;;;;;;5092906;28;20032;-59
2021/08/20 09:43:36;;;;;;;2.50;1.30;;;;;;;;;;5093633;28;20035;-59
2021/08/20 09:46:04;;;;;;;1.40;1.00;;;;;;;;;;5093514;28;20031;-59
2021/08/20 09:48:42;;;;;;;2.10;1.90;;;;;;;;;;5092424;28;20015;-59
2021/08/20 09:51:07;;;;;;;1.15;1.15;;;;;;;;;;5092532;28;20016;-59
2021/08/20 09:53:32;;;;;;;1.30;1.20;;;;;;;;;;5092912;28;20027;-59
2021/08/20 09:56:00;;;;;;;1.30;1.20;;;;;;;;;;5093031;28;20557;-59
2021/08/20 09:58:26;;;;;;;1.38;1.15;;;;;;;;;;5105340;28;20409;-59
2021/08/20 10:00:51;;;;;;;2.03;1.52;;;;;;;;;;5112892;28;20024;-59
2021/08/20 10:03:17;;;;;;;2.20;2.00;;;;;;;;;;5113036;28;20381;-59
2021/08/20 10:05:44;;;;;;;2.88;1.63;;;;;;;;;;5112685;28;20024;-60
2021/08/20 10:08:12;;;;;;;1.58;1.48;;;;;;;;;;5099731;28;20020;-59
2021/08/20 10:10:41;;;;;;;1.98;1.88;;;;;;;;;;5092253;28;20066;-59
2021/08/20 10:13:06;;;;;;;2.92;2.13;;;;;;;;;;5092465;28;20016;-57
2021/08/20 10:15:32;;;;;;;2.78;1.80;;;;;;;;;;5092698;28;20445;-58
2021/08/20 10:17:58;;;;;;;2.90;2.03;;;;;;;;;;5091955;28;20020;-58
2021/08/20 10:20:23;;;;;;;2.30;2.10;;;;;;;;;;5074075;28;20423;-59
2021/08/20 10:22:49;;;;;;;2.03;1.85;;;;;;;;;;5091964;28;20020;-58
2021/08/20 10:25:14;;;;;;;1.50;1.40;;;;;;;;;;5092126;28;20027;-59
2021/08/20 10:27:40;;;;;;;2.28;1.42;;;;;;;;;;5098794;28;20031;-59
2021/08/20 10:30:06;;;;;;;1.63;1.52;;;;;;;;;;5094518;28;20024;-59
2021/08/20 10:32:32;;;;;;;1.73;1.30;;;;;;;;;;5112816;28;20016;-59
2021/08/20 10:34:57;;;;;;;1.48;1.38;;;;;;;;;;5112221;28;20583;-59
2021/08/20 10:37:22;;;;;;;2.33;1.60;;;;;;;;;;5096337;28;20068;-58
2021/08/20 10:39:48;;;;;;;1.23;1.13;;;;;;;;;;5112257;28;20265;-60
2021/08/20 10:42:17;;;;;;;1.42;1.25;;;;;;;;;;5112760;28;20258;-59
2021/08/20 10:44:45;;;;;;;1.58;1.48;;;;;;;;;;5112363;28;20103;-59
2021/08/20 10:47:26;;;;;;;1.50;1.23;;;;;;;;;;5101561;28;20497;-59
2021/08/20 10:50:06;;;;;;;2.22;2.10;;;;;;;;;;5112182;28;20032;-59
2021/08/20 10:52:32;;;;;;;3.83;1.95;;;;;;;;;;5093151;28;20012;-59
2021/08/20 10:54:57;;;;;;;2.38;1.83;;;;;;;;;;5091995;28;20027;-59
2021/08/20 10:57:34;;;;;;;1.97;1.67;;;;;;;;;;5092047;28;20012;-59
2021/08/20 11:00:00;;;;;;;1.95;1.77;;;;;;;;;;5091641;28;20358;-59
2021/08/20 11:02:25;;;;;;;1.60;1.50;;;;;;;;;;5092074;28;20099;-59
2021/08/20 11:05:05;;;;;;;3.63;2.53;;;;;;;;;;5091039;28;20043;-59
2021/08/20 11:07:37;;;;;;;2.10;2.00;;;;;;;;;;5096026;28;20068;-59
2021/08/20 11:10:11;;;;;;;2.42;2.22;;;;;;;;;;5095888;28;20016;-59
2021/08/20 11:12:44;;;;;;;2.50;2.28;;;;;;;;;;5096174;28;20037;-59
2021/08/20 11:15:32;;;;;;;2.10;1.88;;;;;;;;;;5096024;28;20020;-60
2021/08/20 11:18:02;;;;;;;2.58;2.00;;;;;;;;;;5091649;28;20146;-59
2021/08/20 11:20:28;;;;;;;3.20;1.55;;;;;;;;;;5116401;28;20122;-59
2021/08/20 11:23:14;;;;;;;1.90;1.70;;;;;;;;;;5116375;28;20488;-59
2021/08/20 11:25:43;;;;;;;1.77;1.65;;;;;;;;;;5116080;28;20055;-58
2021/08/20 11:28:15;;;;;;;1.52;1.40;;;;;;;;;;5114667;28;20114;-59
2021/08/20 11:30:41;;;;;;;1.65;1.55;;;;;;;;;;5112496;28;20470;-60
2021/08/20 11:33:09;;;;;;;1.97;1.60;;;;;;;;;;5095966;28;20035;-59
2021/08/20 11:35:35;;;;;;;1.30;1.20;;;;;;;;;;5077091;28;20308;-59
2021/08/20 11:38:00;;;;;;;1.27;1.10;;;;;;;;;;5096257;28;20066;-59
2021/08/20 11:40:25;;;;;;;1.20;1.10;;;;;;;;;;5095185;28;20265;-60
2021/08/20 11:43:06;;;;;;;1.97;1.60;;;;;;;;;;5095352;28;20123;-60
2021/08/20 11:45:31;;;;;;;1.73;1.00;;;;;;;;;;5095459;28;20020;-60
2021/08/20 11:47:58;;;;;;;1.20;1.10;;;;;;;;;;5095008;28;20051;-58
2021/08/20 11:50:23;;;;;;;1.60;1.50;;;;;;;;;;5095268;28;20016;-58
2021/08/20 11:52:48;;;;;;;1.83;1.27;;;;;;;;;;5095350;28;20378;-60
2021/08/20 11:55:18;;;;;;;1.35;1.25;;;;;;;;;;5095045;28;20462;-60
2021/08/20 11:57:43;;;;;;;1.85;1.00;;;;;;;;;;5088811;28;20489;-60
2021/08/20 12:00:09;;;;;;;1.92;1.30;;;;;;;;;;5096772;28;20024;-60
2021/08/20 12:02:34;;;;;;;1.23;1.13;;;;;;;;;;5115530;28;20375;-60
2021/08/20 12:05:18;;;;;;;1.30;1.20;;;;;;;;;;5115199;28;20032;-60
2021/08/20 12:07:44;;;;;;;;;;;;;;;;;;5115790;28;20019;-60
2021/08/20 12:10:10;;;;;;;2.25;1.38;;;;;;;;;;5114518;28;20349;-59
2021/08/20 12:12:39;;;;;;;2.13;1.70;;;;;;;;;;5115275;28;20043;-59
2021/08/20 12:15:05;;;;;;;2.42;2.30;;;;;;;;;;5087859;28;20474;-59
2021/08/20 12:17:34;;;;;;;2.13;1.83;;;;;;;;;;5094656;28;20028;-59
2021/08/20 12:20:00;;;;;;;3.88;2.10;;;;;;;;;;5112324;28;20031;-59
2021/08/20 12:22:36;;;;;;;2.55;2.15;;;;;;;;;;5115372;28;20080;-59
2021/08/20 12:25:13;;;;;;;2.75;2.03;;;;;;;;;;5114894;28;20027;-58
2021/08/20 12:27:40;;;;;;;2.85;2.50;;;;;;;;;;5096470;28;20486;-59
2021/08/20 12:30:07;;;;;;;2.40;2.20;;;;;;;;;;5096347;28;20016;-59
2021/08/20 12:32:33;;;;;;;2.38;2.10;;;;;;;;;;5094564;28;20367;-59
2021/08/20 12:35:00;;;;;;;2.33;1.80;;;;;;;;;;5108633;28;20470;-60
2021/08/20 12:37:29;;;;;;;2.47;1.90;;;;;;;;;;5094488;28;20057;-60
2021/08/20 12:40:05;;;;;;;2.08;1.98;;;;;;;;;;5110231;28;20084;-59
2021/08/20 12:42:30;;;;;;;1.67;1.58;;;;;;;;;;5114586;28;20026;-60
2021/08/20 12:45:08;;;;;;;1.93;1.53;;;;;;;;;;5114708;28;20023;-60
2021/08/20 12:47:34;;;;;;;2.05;1.92;;;;;;;;;;5099374;28;20255;-59
2021/08/20 12:50:07;;;;;;;1.75;1.38;;;;;;;;;;5093923;28;20026;-60
2021/08/20 12:52:33;;;;;;;1.63;1.33;;;;;;;;;;5094435;28;20099;-60
2021/08/20 12:54:58;;;;;;;1.75;1.48;;;;;;;;;;5075677;28;20534;-59
2021/08/20 12:57:23;;;;;;;2.28;1.50;;;;;;;;;;5093812;28;20016;-60
2021/08/20 12:59:59;;;;;;;1.53;1.40;;;;;;;;;;5093556;28;20497;-60
2021/08/20 13:02:24;;;;;;;1.92;1.42;;;;;;;;;;5075729;28;20842;-60
2021/08/20 13:04:49;;;;;;;1.30;1.20;;;;;;;;;;5093500;28;20028;-59
2021/08/20 13:07:14;;;;;;;1.43;0.63;;;;;;;;;;5093678;28;20020;-58
2021/08/20 13:09:39;;;;;;;1.57;1.47;;;;;;;;;;5093588;28;20109;-58
2021/08/20 13:12:05;;;;;;;2.10;1.43;;;;;;;;;;5093808;28;20012;-58
2021/08/20 13:14:32;;;;;;;1.92;1.50;;;;;;;;;;5093418;28;20035;-59
2021/08/20 13:16:57;;;;;;;3.95;1.50;;;;;;;;;;5093895;28;20059;-59
2021/08/20 13:19:22;;;;;;;1.93;1.30;;;;;;;;;;5093391;28;20101;-59
2021/08/20 13:21:48;;;;;;;1.55;1.20;;;;;;;;;;5092988;28;20464;-59
2021/08/20 13:24:13;;;;;;;1.60;1.13;;;;;;;;;;5093492;28;20020;-59
2021/08/20 13:26:38;;;;;;;2.50;1.23;;;;;;;;;;5075137;28;20459;-59
2021/08/20 13:29:06;;;;;;;1.67;1.52;;;;;;;;;;5099863;28;20007;-58
2021/08/20 13:31:31;;;;;;;2.35;1.30;;;;;;;;;;5113736;28;20112;-58
2021/08/20 13:33:56;;;;;;;1.50;1.40;;;;;;;;;;5113756;28;20103;-59
2021/08/20 13:36:21;;;;;;;1.77;1.00;;;;;;;;;;5097064;28;20019;-59
2021/08/20 13:38:47;;;;;;;1.20;1.10;;;;;;;;;;5092795;28;20024;-58
2021/08/20 13:41:12;;;;;;;6.53;1.40;;;;;;;;;;5092924;28;20308;-58
2021/08/20 13:43:39;;;;;;;1.50;1.40;;;;;;;;;;5092682;28;20254;-59
2021/08/20 13:46:04;;;;;;;2.65;1.23;;;;;;;;;;5092842;28;20035;-59
2021/08/20 13:48:29;;;;;;;1.50;1.27;;;;;;;;;;5093718;28;20419;-58
2021/08/20 13:50:54;;;;;;;2.70;2.00;;;;;;;;;;5092674;28;20256;-59
2021/08/20 13:53:19;;;;;;;1.53;1.40;;;;;;;;;;5093121;28;20021;-59
2021/08/20 13:55:45;;;;;;;2.40;1.83;;;;;;;;;;5074750;28;20266;-59
2021/08/20 13:58:11;;;;;;;1.60;1.50;;;;;;;;;;5092831;28;20127;-59
2021/08/20 14:00:37;;;;;;;2.38;1.73;;;;;;;;;;5074374;28;20268;-59
2021/08/20 14:03:02;;;;;;;1.42;1.33;;;;;;;;;;5092694;28;20020;-59
2021/08/20 14:05:28;;;;;;;2.65;2.00;;;;;;;;;;5092603;28;20381;-60
2021/08/20 14:07:54;;;;;;;2.42;2.15;;;;;;;;;;5092753;28;20442;-59
2021/08/20 14:10:19;;;;;;;3.97;1.77;;;;;;;;;;5092259;28;20031;-59
2021/08/20 14:12:44;;;;;;;2.33;1.80;;;;;;;;;;5105232;28;20020;-59
2021/08/20 14:15:10;;;;;;;3.07;2.00;;;;;;;;;;5103374;28;20020;-58
2021/08/20 14:17:35;;;;;;;2.47;1.73;;;;;;;;;;5092553;28;20085;-59
2021/08/20 14:20:07;;;;;;;2.60;1.85;;;;;;;;;;5105972;28;20024;-59
2021/08/20 14:22:32;;;;;;;3.25;1.55;;;;;;;;;;5113050;28;20039;-59
2021/08/20 14:24:57;;;;;;;1.88;1.35;;;;;;;;;;5112499;28;20064;-59
2021/08/20 14:27:23;;;;;;;2.20;1.60;;;;;;;;;;5112449;28;20623;-60
2021/08/20 14:29:49;;;;;;;1.77;1.27;;;;;;;;;;5112063;28;20055;-59
2021/08/20 14:32:14;;;;;;;3.17;1.60;;;;;;;;;;5095825;28;20349;-60
2021/08/20 14:34:39;;;;;;;1.50;1.40;;;;;;;;;;5091796;28;20333;-60
2021/08/20 14:37:04;;;;;;;3.23;1.47;;;;;;;;;;5091904;28;20341;-60